Aérodrome :
LOGIN :

S'inscrire | Disclaimer

   EN    FR    IT 

 










Légende :    VFR   VFR Marginal   IFR   IFR Intensif   IFR Très Intensif
Visi : 
Plafond : 
>= 8 km
>= 3000ft
5 à 8 km
1000 à 3000 ft
1500m à 5 km
500 à 1000 ft
800 à 1500m
200 à 500 ft
< 800m
< 200 ft
Symboles :   Orages  Brouillard  Fortes neiges  Fortes précipitations  Vent > 20 kt
SIGMETs :   Divers  Orages  Givrage  Turbulence  Onde Orograph.  Cendres Volcan.






- Altitude de l'aérodrome : 13 ft
- Code IATA : OST


EBOS - Oostend bruges Int.

DERNIER METAR :
  • 232120Z 24018KT 9999 SCT009 BKN025 14/13 Q0999 NOSIG

METARs EXPIRÉS :
  • 232050Z 23010KT 9000 -RA SCT008 BKN025 15/14 Q0999 BECMG 24020G30KT
  • 232020Z 23006KT 9999 FEW020 BKN040 15/14 Q0999 BECMG 24020G30KT
  • 231950Z 21013KT 9999 FEW022TCU BKN040 14/13 Q0999 RERA NOSIG
  • 231920Z 23011KT 4000 RA BR FEW002 BKN022TCU BKN030 14/13 Q0999 BECMG 9999 NSW
  • 231850Z 22008KT 5000 RA FEW002 SCT025TCU BKN035 15/14 Q0999 BECMG 9999 NSW

TAF TAF EBOS
Valide du 23 à 18h jusqu'au 25 à 00h UTC


231720Z 2318/2424 18010KT 9999 SCT020 BKN040
TEMPO 2318/2322 22020G30KT 4000 SHRA
PROB30
TEMPO 2318/2322 2500 TSRA BKN014CB
PROB40
TEMPO 2409/2418 19015G25KT 4000 SHRA



MET'MAP, la Météo Aéronautique d'un coup d'oeil ! - Copyright ORBIFLY Décembre 2007 - Disclaimer

ORBIFLY MET'MAP TEAM :

Programmation & Développement : Alexandra Zaïnal
Sur une idée originale de : Baudouin d'Aumeries
Assistance à la programmation : Marc-Olivier Méhu
Soutien technique & logistique : Manuel Goepfert

Contact : metmap@orbifly.com




SOURCES & CREDITS :

   NOAA